sensor_id;sensor_type;location;lat;lon;timestamp;P1;durP1;ratioP1;P2;durP2;ratioP2
25854;SDS011;13680;49.936;11.344;2023-11-21T00:00:46;7.65;;;2.30;;
25854;SDS011;13680;49.936;11.344;2023-11-21T00:03:12;5.25;;;1.73;;
25854;SDS011;13680;49.936;11.344;2023-11-21T00:05:40;5.47;;;1.70;;
25854;SDS011;13680;49.936;11.344;2023-11-21T00:08:08;10.48;;;2.80;;
25854;SDS011;13680;49.936;11.344;2023-11-21T00:10:34;8.20;;;2.03;;
25854;SDS011;13680;49.936;11.344;2023-11-21T00:13:00;7.07;;;1.70;;
25854;SDS011;13680;49.936;11.344;2023-11-21T00:15:27;7.30;;;1.80;;
25854;SDS011;13680;49.936;11.344;2023-11-21T00:17:52;7.10;;;1.90;;
25854;SDS011;13680;49.936;11.344;2023-11-21T00:20:17;12.90;;;2.08;;
25854;SDS011;13680;49.936;11.344;2023-11-21T00:22:43;7.53;;;2.63;;
25854;SDS011;13680;49.936;11.344;2023-11-21T00:25:08;5.05;;;1.50;;
25854;SDS011;13680;49.936;11.344;2023-11-21T00:27:34;5.30;;;1.65;;
25854;SDS011;13680;49.936;11.344;2023-11-21T00:30:00;7.72;;;1.88;;
25854;SDS011;13680;49.936;11.344;2023-11-21T00:32:26;8.95;;;2.22;;
25854;SDS011;13680;49.936;11.344;2023-11-21T00:34:51;7.57;;;1.15;;
25854;SDS011;13680;49.936;11.344;2023-11-21T00:37:16;8.50;;;1.50;;
25854;SDS011;13680;49.936;11.344;2023-11-21T00:39:42;7.70;;;1.80;;
25854;SDS011;13680;49.936;11.344;2023-11-21T00:42:07;5.03;;;1.77;;
25854;SDS011;13680;49.936;11.344;2023-11-21T00:44:33;4.30;;;1.23;;
25854;SDS011;13680;49.936;11.344;2023-11-21T00:46:59;6.40;;;1.98;;
25854;SDS011;13680;49.936;11.344;2023-11-21T00:49:24;4.97;;;1.50;;
25854;SDS011;13680;49.936;11.344;2023-11-21T00:51:50;6.93;;;1.70;;
25854;SDS011;13680;49.936;11.344;2023-11-21T00:54:15;2.72;;;1.55;;
25854;SDS011;13680;49.936;11.344;2023-11-21T00:56:42;4.78;;;1.67;;
25854;SDS011;13680;49.936;11.344;2023-11-21T00:59:08;6.65;;;1.98;;
25854;SDS011;13680;49.936;11.344;2023-11-21T01:01:33;3.80;;;1.65;;
25854;SDS011;13680;49.936;11.344;2023-11-21T01:03:58;6.60;;;1.80;;
25854;SDS011;13680;49.936;11.344;2023-11-21T01:06:24;5.32;;;1.63;;
25854;SDS011;13680;49.936;11.344;2023-11-21T01:08:49;5.13;;;1.60;;
25854;SDS011;13680;49.936;11.344;2023-11-21T01:11:14;5.53;;;1.60;;
25854;SDS011;13680;49.936;11.344;2023-11-21T01:13:40;5.55;;;1.77;;
25854;SDS011;13680;49.936;11.344;2023-11-21T01:16:05;6.90;;;2.42;;
25854;SDS011;13680;49.936;11.344;2023-11-21T01:18:31;4.70;;;1.63;;
25854;SDS011;13680;49.936;11.344;2023-11-21T01:20:57;10.38;;;1.77;;
25854;SDS011;13680;49.936;11.344;2023-11-21T01:23:22;2.28;;;1.65;;
25854;SDS011;13680;49.936;11.344;2023-11-21T01:25:48;4.70;;;1.70;;
25854;SDS011;13680;49.936;11.344;2023-11-21T01:28:13;6.43;;;1.45;;
25854;SDS011;13680;49.936;11.344;2023-11-21T01:30:39;5.45;;;1.73;;
25854;SDS011;13680;49.936;11.344;2023-11-21T01:33:04;6.28;;;1.70;;
25854;SDS011;13680;49.936;11.344;2023-11-21T01:35:29;6.55;;;1.65;;
25854;SDS011;13680;49.936;11.344;2023-11-21T01:37:55;2.75;;;1.33;;
25854;SDS011;13680;49.936;11.344;2023-11-21T01:40:20;2.58;;;1.42;;
25854;SDS011;13680;49.936;11.344;2023-11-21T01:42:47;2.65;;;1.60;;
25854;SDS011;13680;49.936;11.344;2023-11-21T01:45:13;3.90;;;1.60;;
25854;SDS011;13680;49.936;11.344;2023-11-21T01:47:39;4.03;;;1.58;;
25854;SDS011;13680;49.936;11.344;2023-11-21T01:50:06;2.47;;;1.25;;
25854;SDS011;13680;49.936;11.344;2023-11-21T01:52:33;5.15;;;1.55;;
25854;SDS011;13680;49.936;11.344;2023-11-21T01:55:00;3.10;;;1.40;;
25854;SDS011;13680;49.936;11.344;2023-11-21T01:57:26;6.05;;;2.00;;
25854;SDS011;13680;49.936;11.344;2023-11-21T01:59:51;5.65;;;2.05;;
25854;SDS011;13680;49.936;11.344;2023-11-21T02:02:19;4.57;;;1.63;;
25854;SDS011;13680;49.936;11.344;2023-11-21T02:04:44;7.65;;;1.70;;
25854;SDS011;13680;49.936;11.344;2023-11-21T02:07:10;5.15;;;1.77;;
25854;SDS011;13680;49.936;11.344;2023-11-21T02:09:35;5.88;;;1.65;;
25854;SDS011;13680;49.936;11.344;2023-11-21T02:12:03;5.60;;;1.98;;
25854;SDS011;13680;49.936;11.344;2023-11-21T02:14:29;4.47;;;2.00;;
25854;SDS011;13680;49.936;11.344;2023-11-21T02:16:56;4.45;;;1.75;;
25854;SDS011;13680;49.936;11.344;2023-11-21T02:19:25;5.60;;;1.83;;
25854;SDS011;13680;49.936;11.344;2023-11-21T02:21:52;3.35;;;1.90;;
25854;SDS011;13680;49.936;11.344;2023-11-21T02:24:21;6.88;;;2.03;;
25854;SDS011;13680;49.936;11.344;2023-11-21T02:26:49;2.22;;;1.60;;
25854;SDS011;13680;49.936;11.344;2023-11-21T02:29:18;4.32;;;1.92;;
25854;SDS011;13680;49.936;11.344;2023-11-21T02:31:47;4.85;;;1.85;;
25854;SDS011;13680;49.936;11.344;2023-11-21T02:34:16;3.47;;;2.00;;
25854;SDS011;13680;49.936;11.344;2023-11-21T02:36:45;5.03;;;1.90;;
25854;SDS011;13680;49.936;11.344;2023-11-21T02:39:10;4.43;;;2.15;;
25854;SDS011;13680;49.936;11.344;2023-11-21T02:41:37;8.55;;;1.83;;
25854;SDS011;13680;49.936;11.344;2023-11-21T02:44:04;4.32;;;2.10;;
25854;SDS011;13680;49.936;11.344;2023-11-21T02:46:31;3.58;;;1.90;;
25854;SDS011;13680;49.936;11.344;2023-11-21T02:48:58;6.65;;;2.05;;
25854;SDS011;13680;49.936;11.344;2023-11-21T02:51:24;7.45;;;2.00;;
25854;SDS011;13680;49.936;11.344;2023-11-21T02:53:49;4.40;;;2.05;;
25854;SDS011;13680;49.936;11.344;2023-11-21T02:56:16;3.28;;;2.05;;
25854;SDS011;13680;49.936;11.344;2023-11-21T02:58:42;6.55;;;1.98;;
25854;SDS011;13680;49.936;11.344;2023-11-21T03:01:09;4.32;;;2.05;;
25854;SDS011;13680;49.936;11.344;2023-11-21T03:03:35;4.43;;;1.85;;
25854;SDS011;13680;49.936;11.344;2023-11-21T03:06:05;4.75;;;1.88;;
25854;SDS011;13680;49.936;11.344;2023-11-21T03:08:31;2.70;;;1.75;;
25854;SDS011;13680;49.936;11.344;2023-11-21T03:10:57;3.83;;;1.60;;
25854;SDS011;13680;49.936;11.344;2023-11-21T03:13:22;5.00;;;1.77;;
25854;SDS011;13680;49.936;11.344;2023-11-21T03:15:48;2.80;;;1.90;;
25854;SDS011;13680;49.936;11.344;2023-11-21T03:18:13;4.20;;;2.20;;
25854;SDS011;13680;49.936;11.344;2023-11-21T03:20:38;2.45;;;1.98;;
25854;SDS011;13680;49.936;11.344;2023-11-21T03:23:04;6.45;;;2.00;;
25854;SDS011;13680;49.936;11.344;2023-11-21T03:25:30;3.35;;;2.20;;
25854;SDS011;13680;49.936;11.344;2023-11-21T03:27:56;4.28;;;2.90;;
25854;SDS011;13680;49.936;11.344;2023-11-21T03:30:21;4.32;;;2.25;;
25854;SDS011;13680;49.936;11.344;2023-11-21T03:32:46;5.35;;;2.35;;
25854;SDS011;13680;49.936;11.344;2023-11-21T03:35:12;6.22;;;1.92;;
25854;SDS011;13680;49.936;11.344;2023-11-21T03:37:37;5.20;;;2.17;;
25854;SDS011;13680;49.936;11.344;2023-11-21T03:40:06;4.35;;;2.28;;
25854;SDS011;13680;49.936;11.344;2023-11-21T03:42:34;4.35;;;2.38;;
25854;SDS011;13680;49.936;11.344;2023-11-21T03:44:59;5.05;;;2.70;;
25854;SDS011;13680;49.936;11.344;2023-11-21T03:47:26;5.60;;;2.63;;
25854;SDS011;13680;49.936;11.344;2023-11-21T03:49:52;3.88;;;2.17;;
25854;SDS011;13680;49.936;11.344;2023-11-21T03:52:18;7.20;;;2.50;;
25854;SDS011;13680;49.936;11.344;2023-11-21T03:54:43;4.25;;;2.72;;
25854;SDS011;13680;49.936;11.344;2023-11-21T03:57:09;7.70;;;3.08;;
25854;SDS011;13680;49.936;11.344;2023-11-21T03:59:34;8.80;;;4.20;;
25854;SDS011;13680;49.936;11.344;2023-11-21T04:01:59;6.35;;;4.13;;
25854;SDS011;13680;49.936;11.344;2023-11-21T04:04:25;7.35;;;4.13;;
25854;SDS011;13680;49.936;11.344;2023-11-21T04:06:50;9.95;;;3.67;;
25854;SDS011;13680;49.936;11.344;2023-11-21T04:09:17;5.22;;;4.15;;
25854;SDS011;13680;49.936;11.344;2023-11-21T04:11:42;7.68;;;4.10;;
25854;SDS011;13680;49.936;11.344;2023-11-21T04:14:08;5.63;;;3.72;;
25854;SDS011;13680;49.936;11.344;2023-11-21T04:16:34;8.10;;;4.20;;
25854;SDS011;13680;49.936;11.344;2023-11-21T04:18:59;7.13;;;4.25;;
25854;SDS011;13680;49.936;11.344;2023-11-21T04:21:25;14.75;;;5.68;;
25854;SDS011;13680;49.936;11.344;2023-11-21T04:23:50;6.50;;;4.65;;
25854;SDS011;13680;49.936;11.344;2023-11-21T04:26:15;9.23;;;4.97;;
25854;SDS011;13680;49.936;11.344;2023-11-21T04:28:41;9.60;;;4.90;;
25854;SDS011;13680;49.936;11.344;2023-11-21T04:31:06;9.25;;;4.60;;
25854;SDS011;13680;49.936;11.344;2023-11-21T04:33:32;7.72;;;4.82;;
25854;SDS011;13680;49.936;11.344;2023-11-21T04:35:57;8.30;;;4.50;;
25854;SDS011;13680;49.936;11.344;2023-11-21T04:38:23;11.30;;;4.68;;
25854;SDS011;13680;49.936;11.344;2023-11-21T04:40:48;8.57;;;5.20;;
25854;SDS011;13680;49.936;11.344;2023-11-21T04:43:14;9.30;;;5.28;;
25854;SDS011;13680;49.936;11.344;2023-11-21T04:45:39;7.65;;;5.45;;
25854;SDS011;13680;49.936;11.344;2023-11-21T04:48:06;8.82;;;5.53;;
25854;SDS011;13680;49.936;11.344;2023-11-21T04:50:32;6.50;;;5.07;;
25854;SDS011;13680;49.936;11.344;2023-11-21T04:52:57;8.85;;;5.90;;
25854;SDS011;13680;49.936;11.344;2023-11-21T04:55:23;6.75;;;5.43;;
25854;SDS011;13680;49.936;11.344;2023-11-21T04:57:48;7.32;;;5.45;;
25854;SDS011;13680;49.936;11.344;2023-11-21T05:00:14;10.32;;;5.35;;
25854;SDS011;13680;49.936;11.344;2023-11-21T05:02:40;7.20;;;5.90;;
25854;SDS011;13680;49.936;11.344;2023-11-21T05:05:06;8.52;;;5.93;;
25854;SDS011;13680;49.936;11.344;2023-11-21T05:07:32;10.80;;;5.75;;
25854;SDS011;13680;49.936;11.344;2023-11-21T05:10:00;8.95;;;6.07;;
25854;SDS011;13680;49.936;11.344;2023-11-21T05:12:30;6.90;;;5.47;;
25854;SDS011;13680;49.936;11.344;2023-11-21T05:15:01;10.35;;;5.70;;
25854;SDS011;13680;49.936;11.344;2023-11-21T05:17:28;8.95;;;5.68;;
25854;SDS011;13680;49.936;11.344;2023-11-21T05:19:53;10.52;;;5.28;;
25854;SDS011;13680;49.936;11.344;2023-11-21T05:22:18;7.43;;;5.50;;
25854;SDS011;13680;49.936;11.344;2023-11-21T05:24:44;11.93;;;6.10;;
25854;SDS011;13680;49.936;11.344;2023-11-21T05:27:10;12.57;;;6.88;;
25854;SDS011;13680;49.936;11.344;2023-11-21T05:29:35;9.15;;;6.40;;
25854;SDS011;13680;49.936;11.344;2023-11-21T05:32:02;8.85;;;6.20;;
25854;SDS011;13680;49.936;11.344;2023-11-21T05:34:28;10.18;;;6.38;;
25854;SDS011;13680;49.936;11.344;2023-11-21T05:36:53;9.35;;;6.40;;
25854;SDS011;13680;49.936;11.344;2023-11-21T05:39:18;10.80;;;6.88;;
25854;SDS011;13680;49.936;11.344;2023-11-21T05:41:44;12.68;;;6.72;;
25854;SDS011;13680;49.936;11.344;2023-11-21T05:44:10;13.23;;;8.25;;
25854;SDS011;13680;49.936;11.344;2023-11-21T05:46:35;10.25;;;6.85;;
25854;SDS011;13680;49.936;11.344;2023-11-21T05:49:01;9.02;;;6.32;;
25854;SDS011;13680;49.936;11.344;2023-11-21T05:51:26;8.68;;;6.35;;
25854;SDS011;13680;49.936;11.344;2023-11-21T05:53:51;13.75;;;7.22;;
25854;SDS011;13680;49.936;11.344;2023-11-21T05:56:17;11.77;;;6.88;;
25854;SDS011;13680;49.936;11.344;2023-11-21T05:58:43;10.23;;;6.22;;
25854;SDS011;13680;49.936;11.344;2023-11-21T06:01:08;6.95;;;5.90;;
25854;SDS011;13680;49.936;11.344;2023-11-21T06:03:34;12.52;;;5.85;;
25854;SDS011;13680;49.936;11.344;2023-11-21T06:06:00;8.13;;;6.05;;
25854;SDS011;13680;49.936;11.344;2023-11-21T06:08:25;10.10;;;6.03;;
25854;SDS011;13680;49.936;11.344;2023-11-21T06:10:50;11.90;;;5.70;;
25854;SDS011;13680;49.936;11.344;2023-11-21T06:13:16;8.98;;;5.80;;
25854;SDS011;13680;49.936;11.344;2023-11-21T06:15:41;11.93;;;6.35;;
25854;SDS011;13680;49.936;11.344;2023-11-21T06:18:07;9.10;;;5.82;;
25854;SDS011;13680;49.936;11.344;2023-11-21T06:20:35;10.20;;;6.18;;
25854;SDS011;13680;49.936;11.344;2023-11-21T06:23:02;9.80;;;5.65;;
25854;SDS011;13680;49.936;11.344;2023-11-21T06:25:28;8.13;;;5.97;;
25854;SDS011;13680;49.936;11.344;2023-11-21T06:27:54;10.15;;;5.97;;
25854;SDS011;13680;49.936;11.344;2023-11-21T06:30:19;12.32;;;6.18;;
25854;SDS011;13680;49.936;11.344;2023-11-21T06:32:45;18.83;;;5.45;;
25854;SDS011;13680;49.936;11.344;2023-11-21T06:35:14;8.40;;;5.18;;
25854;SDS011;13680;49.936;11.344;2023-11-21T06:37:40;7.93;;;5.13;;
25854;SDS011;13680;49.936;11.344;2023-11-21T06:40:06;7.88;;;5.85;;
25854;SDS011;13680;49.936;11.344;2023-11-21T06:42:32;9.95;;;5.22;;
25854;SDS011;13680;49.936;11.344;2023-11-21T06:44:58;7.60;;;5.30;;
25854;SDS011;13680;49.936;11.344;2023-11-21T06:47:24;6.80;;;5.57;;
25854;SDS011;13680;49.936;11.344;2023-11-21T06:49:50;6.30;;;5.38;;
25854;SDS011;13680;49.936;11.344;2023-11-21T06:52:16;6.43;;;5.20;;
25854;SDS011;13680;49.936;11.344;2023-11-21T06:54:42;6.75;;;4.82;;
25854;SDS011;13680;49.936;11.344;2023-11-21T06:57:07;12.50;;;5.32;;
25854;SDS011;13680;49.936;11.344;2023-11-21T06:59:33;7.53;;;5.40;;
25854;SDS011;13680;49.936;11.344;2023-11-21T07:01:58;8.68;;;6.32;;
25854;SDS011;13680;49.936;11.344;2023-11-21T07:04:24;7.65;;;5.80;;
25854;SDS011;13680;49.936;11.344;2023-11-21T07:06:50;14.80;;;7.30;;
25854;SDS011;13680;49.936;11.344;2023-11-21T07:09:16;12.05;;;6.90;;
25854;SDS011;13680;49.936;11.344;2023-11-21T07:11:42;8.30;;;5.70;;
25854;SDS011;13680;49.936;11.344;2023-11-21T07:14:07;7.95;;;5.97;;
25854;SDS011;13680;49.936;11.344;2023-11-21T07:16:36;6.45;;;5.63;;
25854;SDS011;13680;49.936;11.344;2023-11-21T07:19:03;6.93;;;5.32;;
25854;SDS011;13680;49.936;11.344;2023-11-21T07:21:31;22.88;;;5.80;;
25854;SDS011;13680;49.936;11.344;2023-11-21T07:23:57;8.07;;;5.75;;
25854;SDS011;13680;49.936;11.344;2023-11-21T07:26:23;7.63;;;5.90;;
25854;SDS011;13680;49.936;11.344;2023-11-21T07:28:49;9.23;;;6.40;;
25854;SDS011;13680;49.936;11.344;2023-11-21T07:31:14;10.18;;;5.97;;
25854;SDS011;13680;49.936;11.344;2023-11-21T07:33:39;8.65;;;6.53;;
25854;SDS011;13680;49.936;11.344;2023-11-21T07:36:05;7.93;;;6.63;;
25854;SDS011;13680;49.936;11.344;2023-11-21T07:38:31;8.05;;;6.38;;
25854;SDS011;13680;49.936;11.344;2023-11-21T07:40:58;6.70;;;5.10;;
25854;SDS011;13680;49.936;11.344;2023-11-21T07:43:26;7.40;;;5.47;;
25854;SDS011;13680;49.936;11.344;2023-11-21T07:45:51;8.35;;;4.93;;
25854;SDS011;13680;49.936;11.344;2023-11-21T07:48:17;9.13;;;5.25;;
25854;SDS011;13680;49.936;11.344;2023-11-21T07:50:42;5.90;;;4.90;;
25854;SDS011;13680;49.936;11.344;2023-11-21T07:53:07;7.50;;;4.53;;
25854;SDS011;13680;49.936;11.344;2023-11-21T07:55:33;5.50;;;4.40;;
25854;SDS011;13680;49.936;11.344;2023-11-21T07:57:58;5.97;;;3.92;;
25854;SDS011;13680;49.936;11.344;2023-11-21T08:00:24;5.53;;;4.55;;
25854;SDS011;13680;49.936;11.344;2023-11-21T08:02:49;6.13;;;3.92;;
25854;SDS011;13680;49.936;11.344;2023-11-21T08:05:15;5.38;;;4.30;;
25854;SDS011;13680;49.936;11.344;2023-11-21T08:07:41;7.32;;;4.40;;
25854;SDS011;13680;49.936;11.344;2023-11-21T08:10:06;9.15;;;5.38;;
25854;SDS011;13680;49.936;11.344;2023-11-21T08:12:32;6.07;;;5.00;;
25854;SDS011;13680;49.936;11.344;2023-11-21T08:14:57;7.57;;;5.30;;
25854;SDS011;13680;49.936;11.344;2023-11-21T08:17:22;9.65;;;5.68;;
25854;SDS011;13680;49.936;11.344;2023-11-21T08:19:48;8.18;;;5.13;;
25854;SDS011;13680;49.936;11.344;2023-11-21T08:22:16;7.05;;;5.28;;
25854;SDS011;13680;49.936;11.344;2023-11-21T08:24:43;8.18;;;5.28;;
25854;SDS011;13680;49.936;11.344;2023-11-21T08:27:08;10.48;;;5.75;;
25854;SDS011;13680;49.936;11.344;2023-11-21T08:29:34;7.70;;;5.10;;
25854;SDS011;13680;49.936;11.344;2023-11-21T08:32:01;8.02;;;5.32;;
25854;SDS011;13680;49.936;11.344;2023-11-21T08:34:27;10.20;;;5.68;;
25854;SDS011;13680;49.936;11.344;2023-11-21T08:36:53;8.55;;;5.85;;
25854;SDS011;13680;49.936;11.344;2023-11-21T08:39:18;7.20;;;5.53;;
25854;SDS011;13680;49.936;11.344;2023-11-21T08:41:44;9.68;;;5.22;;
25854;SDS011;13680;49.936;11.344;2023-11-21T08:44:09;7.85;;;5.25;;
25854;SDS011;13680;49.936;11.344;2023-11-21T08:46:36;6.88;;;5.50;;
25854;SDS011;13680;49.936;11.344;2023-11-21T08:49:02;10.60;;;5.93;;
25854;SDS011;13680;49.936;11.344;2023-11-21T08:51:28;7.55;;;5.47;;
25854;SDS011;13680;49.936;11.344;2023-11-21T08:53:53;5.85;;;5.03;;
25854;SDS011;13680;49.936;11.344;2023-11-21T08:56:19;8.80;;;5.30;;
25854;SDS011;13680;49.936;11.344;2023-11-21T08:58:45;9.48;;;5.03;;
25854;SDS011;13680;49.936;11.344;2023-11-21T09:01:12;7.15;;;5.55;;
25854;SDS011;13680;49.936;11.344;2023-11-21T09:03:38;8.13;;;5.80;;
25854;SDS011;13680;49.936;11.344;2023-11-21T09:06:03;10.57;;;5.93;;
25854;SDS011;13680;49.936;11.344;2023-11-21T09:08:29;14.50;;;7.88;;
25854;SDS011;13680;49.936;11.344;2023-11-21T09:10:55;9.43;;;6.45;;
25854;SDS011;13680;49.936;11.344;2023-11-21T09:13:20;12.45;;;5.95;;
25854;SDS011;13680;49.936;11.344;2023-11-21T09:15:46;14.60;;;6.85;;
25854;SDS011;13680;49.936;11.344;2023-11-21T09:18:13;10.90;;;7.15;;
25854;SDS011;13680;49.936;11.344;2023-11-21T09:20:38;31.15;;;15.93;;
25854;SDS011;13680;49.936;11.344;2023-11-21T09:23:04;8.68;;;6.55;;
25854;SDS011;13680;49.936;11.344;2023-11-21T09:25:29;31.77;;;22.70;;
25854;SDS011;13680;49.936;11.344;2023-11-21T09:27:54;15.20;;;12.00;;
25854;SDS011;13680;49.936;11.344;2023-11-21T09:30:21;6.97;;;5.10;;
25854;SDS011;13680;49.936;11.344;2023-11-21T09:32:46;17.73;;;10.88;;
25854;SDS011;13680;49.936;11.344;2023-11-21T09:35:12;20.25;;;14.15;;
25854;SDS011;13680;49.936;11.344;2023-11-21T09:37:39;12.75;;;8.57;;
25854;SDS011;13680;49.936;11.344;2023-11-21T09:40:04;8.95;;;6.50;;
25854;SDS011;13680;49.936;11.344;2023-11-21T09:42:42;15.25;;;9.48;;
25854;SDS011;13680;49.936;11.344;2023-11-21T09:45:32;7.75;;;4.95;;
25854;SDS011;13680;49.936;11.344;2023-11-21T09:48:01;5.80;;;4.47;;
25854;SDS011;13680;49.936;11.344;2023-11-21T09:50:27;9.85;;;4.35;;
25854;SDS011;13680;49.936;11.344;2023-11-21T09:55:40;4.85;;;3.20;;
25854;SDS011;13680;49.936;11.344;2023-11-21T09:58:08;4.25;;;3.83;;
25854;SDS011;13680;49.936;11.344;2023-11-21T10:00:37;6.13;;;3.60;;
25854;SDS011;13680;49.936;11.344;2023-11-21T10:03:05;4.30;;;3.10;;
25854;SDS011;13680;49.936;11.344;2023-11-21T10:05:30;3.67;;;2.67;;
25854;SDS011;13680;49.936;11.344;2023-11-21T10:07:59;5.28;;;2.22;;
25854;SDS011;13680;49.936;11.344;2023-11-21T10:10:25;3.30;;;2.00;;
25854;SDS011;13680;49.936;11.344;2023-11-21T10:12:52;3.28;;;2.60;;
25854;SDS011;13680;49.936;11.344;2023-11-21T10:15:21;4.22;;;2.38;;
25854;SDS011;13680;49.936;11.344;2023-11-21T10:17:51;3.53;;;2.00;;
25854;SDS011;13680;49.936;11.344;2023-11-21T10:20:19;5.45;;;2.22;;
25854;SDS011;13680;49.936;11.344;2023-11-21T10:22:44;5.45;;;2.22;;
25854;SDS011;13680;49.936;11.344;2023-11-21T10:25:10;3.90;;;2.30;;
25854;SDS011;13680;49.936;11.344;2023-11-21T10:27:39;18.42;;;12.05;;
25854;SDS011;13680;49.936;11.344;2023-11-21T10:30:05;6.07;;;4.00;;
25854;SDS011;13680;49.936;11.344;2023-11-21T10:32:38;5.82;;;2.80;;
25854;SDS011;13680;49.936;11.344;2023-11-21T10:35:08;4.72;;;2.67;;
25854;SDS011;13680;49.936;11.344;2023-11-21T10:37:37;4.10;;;2.67;;
25854;SDS011;13680;49.936;11.344;2023-11-21T10:40:14;5.38;;;2.85;;
25854;SDS011;13680;49.936;11.344;2023-11-21T10:42:39;3.97;;;2.42;;
25854;SDS011;13680;49.936;11.344;2023-11-21T10:45:07;4.93;;;2.75;;
25854;SDS011;13680;49.936;11.344;2023-11-21T10:47:40;4.95;;;2.95;;
25854;SDS011;13680;49.936;11.344;2023-11-21T10:50:06;6.18;;;3.25;;
25854;SDS011;13680;49.936;11.344;2023-11-21T10:52:35;5.13;;;3.15;;
25854;SDS011;13680;49.936;11.344;2023-11-21T10:55:01;6.75;;;3.60;;
25854;SDS011;13680;49.936;11.344;2023-11-21T10:57:28;4.93;;;2.80;;
25854;SDS011;13680;49.936;11.344;2023-11-21T10:59:54;7.95;;;3.30;;
25854;SDS011;13680;49.936;11.344;2023-11-21T11:02:23;4.03;;;2.65;;
25854;SDS011;13680;49.936;11.344;2023-11-21T11:04:53;6.50;;;3.40;;
25854;SDS011;13680;49.936;11.344;2023-11-21T11:07:25;7.97;;;3.25;;
25854;SDS011;13680;49.936;11.344;2023-11-21T11:09:52;8.23;;;3.60;;
25854;SDS011;13680;49.936;11.344;2023-11-21T11:12:19;4.03;;;3.05;;
25854;SDS011;13680;49.936;11.344;2023-11-21T11:14:44;4.55;;;2.50;;
25854;SDS011;13680;49.936;11.344;2023-11-21T11:17:10;3.95;;;2.58;;
25854;SDS011;13680;49.936;11.344;2023-11-21T11:19:35;4.20;;;2.35;;
25854;SDS011;13680;49.936;11.344;2023-11-21T11:24:53;3.05;;;2.40;;
25854;SDS011;13680;49.936;11.344;2023-11-21T11:35:34;6.28;;;3.65;;
25854;SDS011;13680;49.936;11.344;2023-11-21T11:38:07;7.88;;;3.50;;
25854;SDS011;13680;49.936;11.344;2023-11-21T11:41:06;7.88;;;5.00;;
25854;SDS011;13680;49.936;11.344;2023-11-21T11:43:27;10.77;;;2.85;;
25854;SDS011;13680;49.936;11.344;2023-11-21T11:45:57;3.60;;;1.77;;
25854;SDS011;13680;49.936;11.344;2023-11-21T11:48:24;3.67;;;1.85;;
25854;SDS011;13680;49.936;11.344;2023-11-21T11:53:48;10.20;;;2.20;;
25854;SDS011;13680;49.936;11.344;2023-11-21T11:56:28;7.78;;;2.80;;
25854;SDS011;13680;49.936;11.344;2023-11-21T11:58:57;9.60;;;2.25;;
25854;SDS011;13680;49.936;11.344;2023-11-21T12:01:25;35.00;;;21.52;;
25854;SDS011;13680;49.936;11.344;2023-11-21T12:06:56;5.68;;;2.33;;
25854;SDS011;13680;49.936;11.344;2023-11-21T12:09:23;5.18;;;2.55;;
25854;SDS011;13680;49.936;11.344;2023-11-21T12:11:51;6.35;;;2.45;;
25854;SDS011;13680;49.936;11.344;2023-11-21T12:14:17;7.57;;;2.80;;
25854;SDS011;13680;49.936;11.344;2023-11-21T12:16:43;9.45;;;2.28;;
25854;SDS011;13680;49.936;11.344;2023-11-21T12:19:09;4.72;;;2.00;;
25854;SDS011;13680;49.936;11.344;2023-11-21T12:21:36;6.70;;;2.35;;
25854;SDS011;13680;49.936;11.344;2023-11-21T12:24:02;5.90;;;2.13;;
25854;SDS011;13680;49.936;11.344;2023-11-21T12:26:28;7.18;;;2.63;;
25854;SDS011;13680;49.936;11.344;2023-11-21T12:28:53;6.32;;;2.00;;
25854;SDS011;13680;49.936;11.344;2023-11-21T12:31:22;6.30;;;2.05;;
25854;SDS011;13680;49.936;11.344;2023-11-21T12:33:48;5.75;;;2.33;;
25854;SDS011;13680;49.936;11.344;2023-11-21T12:36:13;9.07;;;1.95;;
25854;SDS011;13680;49.936;11.344;2023-11-21T12:38:39;9.95;;;2.20;;
25854;SDS011;13680;49.936;11.344;2023-11-21T12:41:05;8.40;;;2.38;;
25854;SDS011;13680;49.936;11.344;2023-11-21T12:43:34;11.55;;;2.50;;
25854;SDS011;13680;49.936;11.344;2023-11-21T12:46:06;10.38;;;2.78;;
25854;SDS011;13680;49.936;11.344;2023-11-21T12:48:34;7.18;;;2.60;;
25854;SDS011;13680;49.936;11.344;2023-11-21T12:51:03;8.65;;;2.30;;
25854;SDS011;13680;49.936;11.344;2023-11-21T12:53:29;13.02;;;5.55;;
25854;SDS011;13680;49.936;11.344;2023-11-21T12:56:01;14.40;;;5.63;;
25854;SDS011;13680;49.936;11.344;2023-11-21T12:58:28;10.65;;;2.58;;
25854;SDS011;13680;49.936;11.344;2023-11-21T13:00:54;12.27;;;2.47;;
25854;SDS011;13680;49.936;11.344;2023-11-21T13:03:22;5.03;;;2.28;;
25854;SDS011;13680;49.936;11.344;2023-11-21T13:05:51;8.60;;;2.10;;
25854;SDS011;13680;49.936;11.344;2023-11-21T13:08:18;7.95;;;2.55;;
25854;SDS011;13680;49.936;11.344;2023-11-21T13:10:48;5.32;;;2.30;;
25854;SDS011;13680;49.936;11.344;2023-11-21T13:13:14;8.93;;;3.15;;
25854;SDS011;13680;49.936;11.344;2023-11-21T13:18:21;8.85;;;2.60;;
25854;SDS011;13680;49.936;11.344;2023-11-21T13:20:48;10.65;;;3.00;;
25854;SDS011;13680;49.936;11.344;2023-11-21T13:23:14;9.38;;;2.83;;
25854;SDS011;13680;49.936;11.344;2023-11-21T13:25:41;5.25;;;2.55;;
25854;SDS011;13680;49.936;11.344;2023-11-21T13:28:07;11.07;;;3.15;;
25854;SDS011;13680;49.936;11.344;2023-11-21T13:30:34;7.85;;;2.70;;
25854;SDS011;13680;49.936;11.344;2023-11-21T13:33:01;9.10;;;2.28;;
25854;SDS011;13680;49.936;11.344;2023-11-21T13:35:30;9.23;;;2.80;;
25854;SDS011;13680;49.936;11.344;2023-11-21T13:38:06;9.88;;;2.78;;
25854;SDS011;13680;49.936;11.344;2023-11-21T13:40:34;6.05;;;2.03;;
25854;SDS011;13680;49.936;11.344;2023-11-21T13:43:04;12.13;;;3.30;;
25854;SDS011;13680;49.936;11.344;2023-11-21T13:45:35;11.38;;;3.75;;
25854;SDS011;13680;49.936;11.344;2023-11-21T13:48:01;8.13;;;3.65;;
25854;SDS011;13680;49.936;11.344;2023-11-21T13:50:27;9.05;;;2.83;;
25854;SDS011;13680;49.936;11.344;2023-11-21T13:53:01;13.35;;;3.03;;
25854;SDS011;13680;49.936;11.344;2023-11-21T13:55:43;7.13;;;2.45;;
25854;SDS011;13680;49.936;11.344;2023-11-21T13:58:10;8.75;;;2.60;;
25854;SDS011;13680;49.936;11.344;2023-11-21T14:00:41;13.00;;;3.25;;
25854;SDS011;13680;49.936;11.344;2023-11-21T14:03:10;9.50;;;3.25;;
25854;SDS011;13680;49.936;11.344;2023-11-21T14:05:44;10.32;;;3.00;;
25854;SDS011;13680;49.936;11.344;2023-11-21T14:08:12;8.13;;;2.78;;
25854;SDS011;13680;49.936;11.344;2023-11-21T14:10:41;10.02;;;2.72;;
25854;SDS011;13680;49.936;11.344;2023-11-21T14:13:14;10.70;;;3.72;;
25854;SDS011;13680;49.936;11.344;2023-11-21T14:15:42;16.05;;;3.25;;
25854;SDS011;13680;49.936;11.344;2023-11-21T14:18:10;11.00;;;3.28;;
25854;SDS011;13680;49.936;11.344;2023-11-21T14:20:37;9.57;;;4.15;;
25854;SDS011;13680;49.936;11.344;2023-11-21T14:23:03;11.90;;;3.85;;
25854;SDS011;13680;49.936;11.344;2023-11-21T14:25:31;14.73;;;4.95;;
25854;SDS011;13680;49.936;11.344;2023-11-21T14:27:57;18.20;;;4.78;;
25854;SDS011;13680;49.936;11.344;2023-11-21T14:30:22;8.43;;;3.53;;
25854;SDS011;13680;49.936;11.344;2023-11-21T14:32:48;13.38;;;4.38;;
25854;SDS011;13680;49.936;11.344;2023-11-21T14:35:15;11.43;;;4.32;;
25854;SDS011;13680;49.936;11.344;2023-11-21T14:37:41;11.77;;;3.60;;
25854;SDS011;13680;49.936;11.344;2023-11-21T14:40:06;14.27;;;3.67;;
25854;SDS011;13680;49.936;11.344;2023-11-21T14:42:33;9.65;;;3.80;;
25854;SDS011;13680;49.936;11.344;2023-11-21T14:44:59;19.42;;;3.80;;
25854;SDS011;13680;49.936;11.344;2023-11-21T14:47:28;9.13;;;3.40;;
25854;SDS011;13680;49.936;11.344;2023-11-21T14:49:53;13.80;;;3.95;;